createdAt,value
2022-08-27T00:02:13.364Z,7.95
2022-08-27T00:04:49.983Z,7.30
2022-08-27T00:07:27.510Z,7.68
2022-08-27T00:09:55.998Z,8.13
2022-08-27T00:12:24.651Z,10.13
2022-08-27T00:14:53.274Z,7.55
2022-08-27T00:17:21.715Z,7.53
2022-08-27T00:19:51.981Z,7.45
2022-08-27T00:22:23.255Z,7.38
2022-08-27T00:24:51.918Z,8.50
2022-08-27T00:27:20.710Z,7.45
2022-08-27T00:29:49.516Z,8.25
2022-08-27T00:32:18.624Z,8.90
2022-08-27T00:34:48.373Z,9.07
2022-08-27T00:37:18.365Z,7.57
2022-08-27T00:39:47.246Z,7.88
2022-08-27T00:42:16.161Z,7.70
2022-08-27T00:44:45.160Z,7.53
2022-08-27T00:47:16.031Z,7.97
2022-08-27T00:49:47.031Z,7.53
2022-08-27T00:52:19.088Z,7.53
2022-08-27T00:54:49.158Z,7.53
2022-08-27T00:57:17.941Z,7.25
2022-08-27T00:59:47.005Z,7.05
2022-08-27T01:02:22.150Z,6.85
2022-08-27T01:04:53.407Z,6.97
2022-08-27T01:07:23.039Z,6.43
2022-08-27T01:09:54.264Z,7.05
2022-08-27T01:12:23.236Z,7.47
2022-08-27T01:14:53.358Z,7.47
2022-08-27T01:17:22.238Z,7.55
2022-08-27T01:19:52.383Z,7.63
2022-08-27T01:22:28.082Z,7.80
2022-08-27T01:25:00.800Z,8.57
2022-08-27T01:27:31.569Z,8.50
2022-08-27T01:30:00.620Z,8.43
2022-08-27T01:32:30.621Z,8.50
2022-08-27T01:34:59.365Z,8.25
2022-08-27T01:37:28.517Z,7.50
2022-08-27T01:40:03.556Z,8.35
2022-08-27T01:42:33.972Z,8.43
2022-08-27T01:45:07.432Z,8.48
2022-08-27T01:47:37.101Z,7.95
2022-08-27T01:50:07.492Z,7.40
2022-08-27T01:52:36.209Z,7.50
2022-08-27T01:55:07.033Z,7.35
2022-08-27T01:57:36.494Z,7.32
2022-08-27T02:00:06.851Z,7.70
2022-08-27T02:02:36.224Z,7.20
2022-08-27T02:05:04.804Z,7.38
2022-08-27T02:07:33.593Z,7.60
2022-08-27T02:10:05.757Z,7.22
2022-08-27T02:12:35.703Z,7.47
2022-08-27T02:15:04.891Z,7.10
2022-08-27T02:17:33.768Z,7.25
2022-08-27T02:20:02.355Z,7.38
2022-08-27T02:22:31.092Z,6.80
2022-08-27T02:24:59.625Z,6.60
2022-08-27T02:27:28.326Z,6.47
2022-08-27T02:29:59.106Z,7.53
2022-08-27T02:32:32.072Z,7.40
2022-08-27T02:35:01.505Z,6.55
2022-08-27T02:37:30.258Z,7.05
2022-08-27T02:39:59.759Z,7.05
2022-08-27T02:42:29.745Z,7.07
2022-08-27T02:44:59.809Z,7.25
2022-08-27T02:47:28.538Z,6.57
2022-08-27T02:49:58.126Z,6.80
2022-08-27T02:52:30.159Z,7.68
2022-08-27T02:55:01.241Z,7.53
2022-08-27T02:57:36.694Z,7.20
2022-08-27T03:00:13.372Z,7.22
2022-08-27T03:02:42.680Z,7.20
2022-08-27T03:05:15.249Z,7.32
2022-08-27T03:07:44.695Z,7.13
2022-08-27T03:10:14.741Z,7.78
2022-08-27T03:12:44.457Z,7.97
2022-08-27T03:15:16.820Z,7.13
2022-08-27T03:18:03.218Z,7.00
2022-08-27T03:20:31.855Z,6.97
2022-08-27T03:23:01.684Z,6.93
2022-08-27T03:25:33.063Z,7.20
2022-08-27T03:28:04.271Z,6.88
2022-08-27T03:30:39.712Z,6.93
2022-08-27T03:33:10.684Z,6.60
2022-08-27T03:35:39.584Z,7.13
2022-08-27T03:38:10.748Z,7.35
2022-08-27T03:40:41.364Z,6.38
2022-08-27T03:43:13.955Z,6.22
2022-08-27T03:45:52.779Z,7.78
2022-08-27T03:48:34.853Z,7.15
2022-08-27T03:51:09.798Z,8.50
2022-08-27T03:53:54.634Z,7.75
2022-08-27T03:56:25.933Z,7.28
2022-08-27T03:58:54.698Z,6.93
2022-08-27T04:01:26.588Z,7.15
2022-08-27T04:03:59.192Z,6.75
2022-08-27T04:06:28.352Z,6.65
2022-08-27T04:08:58.477Z,7.15
2022-08-27T04:11:29.645Z,7.53
2022-08-27T04:13:58.354Z,6.97
2022-08-27T04:16:33.491Z,7.28
2022-08-27T04:19:02.399Z,7.68
2022-08-27T04:21:35.923Z,8.18
2022-08-27T04:24:07.644Z,7.03
2022-08-27T04:26:36.316Z,7.82
2022-08-27T04:29:08.141Z,7.90
2022-08-27T04:31:38.321Z,7.95
2022-08-27T04:34:07.986Z,7.65
2022-08-27T04:36:37.986Z,7.90
2022-08-27T04:39:08.840Z,8.07
2022-08-27T04:41:39.832Z,7.47
2022-08-27T04:44:22.016Z,7.72
2022-08-27T04:46:58.669Z,7.95
2022-08-27T04:49:31.983Z,8.10
2022-08-27T04:52:02.946Z,8.25
2022-08-27T04:54:34.931Z,7.55
2022-08-27T04:57:05.587Z,7.47
2022-08-27T04:59:42.093Z,8.02
2022-08-27T05:02:12.398Z,8.52
2022-08-27T05:04:46.467Z,7.90
2022-08-27T05:07:18.359Z,7.68
2022-08-27T05:09:51.115Z,8.85
2022-08-27T05:12:19.732Z,7.80
2022-08-27T05:14:48.341Z,7.57
2022-08-27T05:17:20.281Z,8.43
2022-08-27T05:19:52.106Z,9.23
2022-08-27T05:22:23.049Z,9.05
2022-08-27T05:25:02.475Z,8.90
2022-08-27T05:27:40.462Z,8.80
2022-08-27T05:30:13.283Z,10.75
2022-08-27T05:32:48.029Z,10.65
2022-08-27T05:35:19.673Z,10.35
2022-08-27T05:37:56.513Z,10.10
2022-08-27T05:40:30.548Z,10.02
2022-08-27T05:43:19.707Z,9.48
2022-08-27T05:48:49.740Z,9.30
2022-08-27T05:51:25.718Z,9.45
2022-08-27T05:56:53.290Z,10.15
2022-08-27T05:59:44.997Z,10.43
2022-08-27T06:02:41.087Z,10.65
2022-08-27T06:05:27.792Z,10.88
2022-08-27T06:07:59.579Z,10.05
2022-08-27T06:10:38.536Z,11.23
2022-08-27T06:13:10.113Z,10.38
2022-08-27T06:15:39.406Z,10.82
2022-08-27T06:18:16.862Z,12.32
2022-08-27T06:20:48.311Z,11.07
2022-08-27T06:23:28.118Z,11.48
2022-08-27T06:25:57.440Z,11.00
2022-08-27T06:28:29.649Z,11.05
2022-08-27T06:31:07.473Z,11.57
2022-08-27T06:33:36.886Z,12.80
2022-08-27T06:36:10.903Z,12.05
2022-08-27T06:38:43.491Z,11.38
2022-08-27T06:41:23.492Z,12.27
2022-08-27T06:43:52.708Z,11.93
2022-08-27T06:46:22.902Z,11.57
2022-08-27T06:48:53.705Z,11.55
2022-08-27T06:51:27.461Z,12.05
2022-08-27T06:53:58.634Z,11.57
2022-08-27T06:56:29.971Z,11.60
2022-08-27T06:59:00.719Z,12.32
2022-08-27T07:01:30.689Z,13.60
2022-08-27T07:04:01.257Z,11.93
2022-08-27T07:06:34.172Z,13.57
2022-08-27T07:09:02.951Z,13.82
2022-08-27T07:11:32.765Z,13.57
2022-08-27T07:14:01.347Z,13.68
2022-08-27T07:16:30.826Z,13.18
2022-08-27T07:19:04.068Z,12.43
2022-08-27T07:21:35.295Z,14.23
2022-08-27T07:24:09.846Z,12.98
2022-08-27T07:26:43.193Z,13.32
2022-08-27T07:29:17.000Z,13.23
2022-08-27T07:31:53.842Z,13.95
2022-08-27T07:34:22.412Z,14.05
2022-08-27T07:36:56.629Z,13.65
2022-08-27T07:39:30.027Z,13.65
2022-08-27T07:42:16.547Z,13.48
2022-08-27T07:44:45.265Z,14.20
2022-08-27T07:47:13.891Z,13.65
2022-08-27T07:49:44.459Z,13.95
2022-08-27T07:52:16.302Z,13.30
2022-08-27T07:54:45.159Z,13.68
2022-08-27T07:57:14.095Z,14.55
2022-08-27T07:59:42.839Z,13.48
2022-08-27T08:02:12.964Z,14.27
2022-08-27T08:04:43.928Z,12.93
2022-08-27T08:07:15.375Z,13.23
2022-08-27T08:09:44.054Z,13.80
2022-08-27T08:12:16.727Z,14.45
2022-08-27T08:14:45.871Z,14.20
2022-08-27T08:17:16.490Z,13.73
2022-08-27T08:19:53.563Z,12.07
2022-08-27T08:22:49.012Z,12.27
2022-08-27T08:27:50.661Z,12.13
2022-08-27T08:30:25.862Z,12.98
2022-08-27T08:32:55.175Z,12.88
2022-08-27T08:35:24.454Z,12.60
2022-08-27T08:37:52.955Z,11.63
2022-08-27T08:40:27.255Z,12.73
2022-08-27T08:42:57.930Z,12.05
2022-08-27T08:45:28.464Z,10.75
2022-08-27T08:48:00.321Z,10.18
2022-08-27T08:50:33.246Z,10.65
2022-08-27T08:53:04.213Z,10.38
2022-08-27T08:55:37.058Z,9.65
2022-08-27T08:58:23.236Z,10.60
2022-08-27T09:00:55.035Z,10.30
2022-08-27T09:03:23.750Z,11.10
2022-08-27T09:05:55.851Z,9.90
2022-08-27T09:08:35.244Z,10.88
2022-08-27T09:11:10.198Z,8.82
2022-08-27T09:16:21.066Z,8.50
2022-08-27T09:18:55.593Z,8.40
2022-08-27T09:21:43.161Z,8.40
2022-08-27T09:24:16.749Z,7.57
2022-08-27T09:26:46.334Z,7.78
2022-08-27T09:29:23.561Z,7.57
2022-08-27T09:31:57.478Z,8.05
2022-08-27T09:34:40.926Z,7.65
2022-08-27T09:37:10.699Z,8.10
2022-08-27T09:39:47.627Z,7.30
2022-08-27T09:42:30.019Z,8.25
2022-08-27T09:45:08.652Z,7.68
2022-08-27T09:47:47.577Z,7.13
2022-08-27T09:50:33.658Z,6.85
2022-08-27T09:53:07.769Z,7.93
2022-08-27T09:55:43.038Z,7.75
2022-08-27T10:01:48.995Z,8.02
2022-08-27T10:04:33.469Z,7.43
2022-08-27T10:07:19.156Z,8.05
2022-08-27T10:09:54.898Z,7.25
2022-08-27T10:12:26.261Z,7.55
2022-08-27T10:15:05.910Z,7.93
2022-08-27T10:17:49.160Z,7.65
2022-08-27T10:20:30.251Z,7.65
2022-08-27T10:23:08.629Z,8.20
2022-08-27T10:25:44.728Z,7.68
2022-08-27T10:32:02.395Z,8.20
2022-08-27T10:34:43.394Z,7.75
2022-08-27T10:37:52.006Z,8.35
2022-08-27T10:41:03.725Z,8.40
2022-08-27T10:43:53.901Z,6.63
2022-08-27T10:46:50.122Z,7.25
2022-08-27T10:49:55.537Z,7.20
2022-08-27T10:52:39.070Z,6.95
2022-08-27T10:55:24.613Z,6.38
2022-08-27T10:58:16.665Z,6.20
2022-08-27T11:00:55.181Z,6.38
2022-08-27T11:03:40.263Z,5.80
2022-08-27T11:23:05.610Z,6.03
2022-08-27T11:32:38.911Z,5.40
2022-08-27T11:35:46.301Z,6.07
2022-08-27T11:39:03.781Z,6.68
2022-08-27T11:42:00.397Z,6.07
2022-08-27T11:44:46.993Z,5.43
2022-08-27T11:48:09.099Z,6.13
2022-08-27T11:51:06.020Z,6.50
2022-08-27T11:53:52.458Z,5.65
2022-08-27T11:56:45.608Z,6.03
2022-08-27T11:59:24.872Z,6.25
2022-08-27T12:02:10.368Z,6.10
2022-08-27T12:04:42.222Z,6.47
2022-08-27T12:07:29.596Z,6.15
2022-08-27T12:10:23.160Z,5.50
2022-08-27T12:13:18.326Z,6.75
2022-08-27T12:16:04.485Z,6.18
2022-08-27T12:22:11.451Z,7.30
2022-08-27T12:25:23.257Z,6.85
2022-08-27T12:37:38.741Z,5.70
2022-08-27T12:40:11.012Z,6.82
2022-08-27T12:42:39.460Z,6.47
2022-08-27T12:45:08.292Z,6.55
2022-08-27T12:47:42.669Z,6.03
2022-08-27T12:50:22.882Z,6.00
2022-08-27T12:53:02.004Z,5.65
2022-08-27T12:55:37.134Z,5.20
2022-08-27T12:58:15.339Z,4.78
2022-08-27T13:01:03.948Z,5.63
2022-08-27T13:03:34.576Z,5.40
2022-08-27T13:06:02.968Z,5.35
2022-08-27T13:08:34.081Z,5.43
2022-08-27T13:11:12.847Z,5.95
2022-08-27T13:13:42.975Z,5.30
2022-08-27T13:16:11.765Z,5.35
2022-08-27T13:18:40.262Z,5.40
2022-08-27T13:21:10.648Z,5.65
2022-08-27T13:23:45.503Z,6.32
2022-08-27T13:26:13.968Z,6.47
2022-08-27T13:28:43.812Z,6.28
2022-08-27T13:31:13.196Z,7.13
2022-08-27T13:33:42.133Z,7.35
2022-08-27T13:36:11.513Z,6.70
2022-08-27T13:38:46.593Z,7.18
2022-08-27T13:41:22.566Z,6.28
2022-08-27T13:43:53.014Z,5.80
2022-08-27T13:46:26.380Z,6.30
2022-08-27T13:48:55.796Z,5.90
2022-08-27T13:51:27.181Z,5.38
2022-08-27T13:54:15.880Z,5.30
2022-08-27T13:56:57.611Z,5.47
2022-08-27T13:59:27.208Z,5.35
2022-08-27T14:01:58.525Z,5.60
2022-08-27T14:04:28.295Z,5.05
2022-08-27T14:06:56.739Z,5.45
2022-08-27T14:09:28.258Z,5.38
2022-08-27T14:12:03.217Z,5.05
2022-08-27T14:14:32.041Z,4.78
2022-08-27T14:17:01.313Z,4.85
2022-08-27T14:19:33.397Z,5.38
2022-08-27T14:22:06.210Z,4.97
2022-08-27T14:24:35.878Z,5.07
2022-08-27T14:27:08.532Z,5.57
2022-08-27T14:29:37.678Z,5.15
2022-08-27T14:32:07.693Z,4.88
2022-08-27T14:34:36.048Z,4.65
2022-08-27T14:37:05.025Z,4.63
2022-08-27T14:39:33.575Z,5.30
2022-08-27T14:42:03.326Z,4.22
2022-08-27T14:44:33.818Z,4.75
2022-08-27T14:47:03.086Z,4.38
2022-08-27T14:49:34.471Z,4.10
2022-08-27T14:52:03.563Z,4.78
2022-08-27T14:54:33.810Z,4.40
2022-08-27T14:57:03.928Z,3.90
2022-08-27T14:59:35.261Z,4.40
2022-08-27T15:02:05.112Z,4.20
2022-08-27T15:04:33.535Z,4.07
2022-08-27T15:07:02.155Z,4.00
2022-08-27T15:09:30.562Z,4.57
2022-08-27T15:11:59.242Z,4.28
2022-08-27T15:14:29.696Z,4.10
2022-08-27T15:16:58.147Z,4.22
2022-08-27T15:19:26.935Z,4.00
2022-08-27T15:21:56.535Z,3.85
2022-08-27T15:24:26.447Z,4.03
2022-08-27T15:26:57.488Z,3.92
2022-08-27T15:29:26.285Z,4.53
2022-08-27T15:31:56.086Z,4.47
2022-08-27T15:34:24.418Z,4.82
2022-08-27T15:36:52.750Z,4.70
2022-08-27T15:39:21.098Z,4.28
2022-08-27T15:42:05.752Z,4.85
2022-08-27T15:44:34.894Z,4.65
2022-08-27T15:47:04.740Z,5.22
2022-08-27T15:49:33.103Z,5.45
2022-08-27T15:52:01.829Z,4.72
2022-08-27T15:54:32.122Z,5.28
2022-08-27T15:57:00.869Z,5.00
2022-08-27T15:59:29.360Z,4.95
2022-08-27T16:01:57.836Z,4.38
2022-08-27T16:04:27.975Z,4.40
2022-08-27T16:06:56.891Z,4.80
2022-08-27T16:09:25.255Z,4.80
2022-08-27T16:11:53.616Z,5.20
2022-08-27T16:14:21.957Z,5.40
2022-08-27T16:16:50.770Z,5.05
2022-08-27T16:19:19.789Z,5.15
2022-08-27T16:21:50.219Z,5.38
2022-08-27T16:24:19.574Z,5.90
2022-08-27T16:26:48.607Z,5.68
2022-08-27T16:29:17.415Z,5.75
2022-08-27T16:31:45.884Z,6.32
2022-08-27T16:34:16.666Z,6.03
2022-08-27T16:36:45.780Z,5.53
2022-08-27T16:39:15.474Z,6.43
2022-08-27T16:41:43.813Z,6.65
2022-08-27T16:44:12.562Z,6.18
2022-08-27T16:46:41.008Z,6.68
2022-08-27T16:49:26.959Z,5.82
2022-08-27T16:51:55.422Z,6.47
2022-08-27T16:54:26.273Z,6.13
2022-08-27T16:56:54.658Z,6.35
2022-08-27T16:59:23.001Z,6.72
2022-08-27T17:01:53.232Z,6.57
2022-08-27T17:04:29.617Z,6.43
2022-08-27T17:07:00.802Z,6.68
2022-08-27T17:09:31.555Z,7.25
2022-08-27T17:12:03.903Z,6.63
2022-08-27T17:14:33.056Z,6.97
2022-08-27T17:17:01.436Z,7.50
2022-08-27T17:19:29.775Z,7.70
2022-08-27T17:21:58.193Z,6.95
2022-08-27T17:24:26.577Z,7.32
2022-08-27T17:26:56.366Z,7.00
2022-08-27T17:29:25.066Z,6.60
2022-08-27T17:31:53.751Z,6.53
2022-08-27T17:34:23.396Z,7.65
2022-08-27T17:36:51.930Z,6.85
2022-08-27T17:39:20.930Z,7.43
2022-08-27T17:41:50.973Z,7.88
2022-08-27T17:44:23.923Z,7.47
2022-08-27T17:46:52.651Z,7.53
2022-08-27T17:49:21.243Z,7.50
2022-08-27T17:51:50.979Z,7.63
2022-08-27T17:54:27.508Z,6.90
2022-08-27T17:56:55.965Z,8.75
2022-08-27T17:59:25.809Z,9.48
2022-08-27T18:01:54.617Z,13.82
2022-08-27T18:04:23.134Z,10.70
2022-08-27T18:06:51.839Z,10.60
2022-08-27T18:09:20.467Z,14.15
2022-08-27T18:11:48.961Z,12.20
2022-08-27T18:14:18.565Z,10.55
2022-08-27T18:16:48.496Z,20.55
2022-08-27T18:19:16.891Z,15.10
2022-08-27T18:21:46.975Z,11.60
2022-08-27T18:24:15.917Z,8.90
2022-08-27T18:26:45.287Z,8.13
2022-08-27T18:29:14.717Z,7.80
2022-08-27T18:31:44.244Z,8.48
2022-08-27T18:34:20.100Z,8.02
2022-08-27T18:36:49.205Z,7.88
2022-08-27T18:39:17.562Z,8.02
2022-08-27T18:41:45.995Z,7.68
2022-08-27T18:44:17.465Z,7.70
2022-08-27T18:46:47.631Z,7.18
2022-08-27T18:49:17.425Z,6.93
2022-08-27T18:51:49.400Z,7.25
2022-08-27T18:54:21.417Z,7.60
2022-08-27T18:56:52.857Z,7.55
2022-08-27T18:59:25.552Z,8.20
2022-08-27T19:01:54.065Z,8.30
2022-08-27T19:04:24.576Z,8.82
2022-08-27T19:06:52.960Z,8.85
2022-08-27T19:09:24.312Z,9.20
2022-08-27T19:11:54.798Z,9.98
2022-08-27T19:14:25.598Z,8.80
2022-08-27T19:16:56.136Z,7.82
2022-08-27T19:19:27.326Z,7.50
2022-08-27T19:21:55.691Z,7.32
2022-08-27T19:24:27.607Z,7.40
2022-08-27T19:26:56.284Z,7.78
2022-08-27T19:29:24.650Z,7.35
2022-08-27T19:31:56.060Z,7.38
2022-08-27T19:34:25.855Z,7.72
2022-08-27T19:36:54.204Z,7.40
2022-08-27T19:39:22.567Z,6.95
2022-08-27T19:41:52.965Z,7.68
2022-08-27T19:44:21.422Z,6.97
2022-08-27T19:46:51.576Z,7.20
2022-08-27T19:49:21.934Z,7.35
2022-08-27T19:51:53.498Z,7.90
2022-08-27T19:54:22.210Z,6.60
2022-08-27T19:56:50.559Z,7.10
2022-08-27T19:59:23.487Z,7.07
2022-08-27T20:01:53.878Z,6.10
2022-08-27T20:04:27.035Z,6.90
2022-08-27T20:06:58.938Z,7.38
2022-08-27T20:09:29.814Z,6.80
2022-08-27T20:11:59.462Z,6.40
2022-08-27T20:14:28.132Z,7.10
2022-08-27T20:16:59.083Z,6.72
2022-08-27T20:19:27.511Z,6.07
2022-08-27T20:21:55.848Z,6.88
2022-08-27T20:24:25.593Z,6.95
2022-08-27T20:26:53.922Z,7.18
2022-08-27T20:29:32.321Z,6.38
2022-08-27T20:32:01.539Z,7.05
2022-08-27T20:34:29.995Z,6.53
2022-08-27T20:36:58.868Z,6.95
2022-08-27T20:39:28.580Z,7.07
2022-08-27T20:41:56.925Z,6.82
2022-08-27T20:44:25.318Z,6.70
2022-08-27T20:46:56.542Z,7.20
2022-08-27T20:49:24.891Z,6.47
2022-08-27T20:52:03.034Z,6.70
2022-08-27T20:54:34.659Z,6.93
2022-08-27T20:57:03.343Z,7.35
2022-08-27T20:59:49.710Z,7.35
2022-08-27T21:02:22.063Z,7.05
2022-08-27T21:04:50.515Z,7.00
2022-08-27T21:07:19.837Z,7.05
2022-08-27T21:09:55.594Z,8.13
2022-08-27T21:12:25.147Z,6.63
2022-08-27T21:14:56.188Z,7.03
2022-08-27T21:17:25.352Z,6.65
2022-08-27T21:19:53.773Z,6.22
2022-08-27T21:22:22.183Z,6.18
2022-08-27T21:24:52.137Z,6.68
2022-08-27T21:27:21.667Z,6.13
2022-08-27T21:29:50.012Z,6.78
2022-08-27T21:32:18.819Z,6.13
2022-08-27T21:34:47.329Z,6.70
2022-08-27T21:37:17.929Z,7.03
2022-08-27T21:39:46.621Z,6.80
2022-08-27T21:42:16.753Z,6.90
2022-08-27T21:44:45.309Z,6.80
2022-08-27T21:47:13.659Z,6.15
2022-08-27T21:49:42.557Z,6.63
2022-08-27T21:52:11.052Z,6.60
2022-08-27T21:54:41.189Z,6.32
2022-08-27T21:57:10.358Z,7.10
2022-08-27T21:59:45.978Z,6.75
2022-08-27T22:02:38.098Z,6.72
2022-08-27T22:05:03.379Z,7.05
2022-08-27T22:07:31.695Z,7.00
2022-08-27T22:10:00.080Z,6.45
2022-08-27T22:12:28.458Z,7.13
2022-08-27T22:14:58.170Z,6.95
2022-08-27T22:17:26.530Z,6.93
2022-08-27T22:19:54.902Z,6.68
2022-08-27T22:22:23.281Z,6.63
2022-08-27T22:24:52.914Z,6.72
2022-08-27T22:27:21.337Z,7.15
2022-08-27T22:29:49.709Z,6.20
2022-08-27T22:32:19.446Z,6.47
2022-08-27T22:34:47.869Z,6.40
2022-08-27T22:37:16.266Z,6.90
2022-08-27T22:39:44.604Z,6.55
2022-08-27T22:42:13.917Z,6.47
2022-08-27T22:44:46.501Z,6.28
2022-08-27T22:47:16.461Z,6.68
2022-08-27T22:49:46.225Z,6.03
2022-08-27T22:52:14.618Z,6.03
2022-08-27T22:54:42.950Z,6.72
2022-08-27T22:57:13.483Z,6.20
2022-08-27T22:59:41.807Z,6.28
2022-08-27T23:02:11.038Z,6.53
2022-08-27T23:04:54.761Z,6.30
2022-08-27T23:07:25.549Z,6.82
2022-08-27T23:09:53.875Z,6.22
2022-08-27T23:12:22.858Z,6.00
2022-08-27T23:14:53.599Z,6.07
2022-08-27T23:17:23.950Z,5.75
2022-08-27T23:19:53.439Z,6.70
2022-08-27T23:22:22.380Z,6.22
2022-08-27T23:25:09.942Z,5.95
2022-08-27T23:27:38.262Z,6.07
2022-08-27T23:30:08.054Z,6.47
2022-08-27T23:32:36.457Z,6.28
2022-08-27T23:35:05.000Z,6.35
2022-08-27T23:37:33.343Z,6.03
2022-08-27T23:40:03.184Z,6.50
2022-08-27T23:42:31.526Z,5.95
2022-08-27T23:44:59.832Z,6.63
2022-08-27T23:47:28.224Z,6.30
2022-08-27T23:49:56.517Z,5.75
2022-08-27T23:52:24.946Z,6.10
2022-08-27T23:54:53.250Z,5.80
2022-08-27T23:57:22.926Z,5.35
2022-08-27T23:59:51.239Z,6.50
